Time;durP1;ratioP1;P1;durP2;ratioP2;P2;SDS_P1;SDS_P2;PMS_P1;PMS_P2;Temp;Humidity;BMP_temperature;BMP_pressure;BME280_temperature;BME280_humidity;BME280_pressure;Samples;Min_cycle;Max_cycle;Signal;HPM_P1;HPM_P2
2022/04/03 00:00:10;;;;;;;;;16.00;16.00;;;;;5.37;54.21;101895.84;4964928;28;45280;-64
2022/04/03 00:02:36;;;;;;;;;15.75;13.00;;;;;5.37;55.11;101900.13;4962613;28;46012;-64
2022/04/03 00:05:02;;;;;;;;;18.25;16.00;;;;;5.39;55.58;101895.84;4966528;28;45473;-64
2022/04/03 00:07:27;;;;;;;;;17.25;16.50;;;;;5.35;54.25;101897.53;4965011;28;45413;-64
2022/04/03 00:09:52;;;;;;;;;16.00;13.25;;;;;5.34;55.56;101897.53;4966512;28;45403;-64
2022/04/03 00:12:18;;;;;;;;;13.00;12.00;;;;;5.32;53.75;101900.09;4968350;28;46173;-65
2022/04/03 00:14:44;;;;;;;;;13.50;11.00;;;;;5.31;55.77;101902.66;4965932;28;46543;-65
2022/04/03 00:17:09;;;;;;;;;16.25;12.75;;;;;5.28;54.96;101897.44;4968067;28;45537;-64
2022/04/03 00:19:34;;;;;;;;;8.75;8.75;;;;;5.24;54.97;101900.84;4967156;28;45378;-64
2022/04/03 00:22:01;;;;;;;;;14.50;12.50;;;;;5.24;55.34;101893.13;4972958;28;46001;-65
2022/04/03 00:24:27;;;;;;;;;18.00;16.00;;;;;5.22;55.21;101902.53;4964810;28;45966;-65
2022/04/03 00:26:52;;;;;;;;;18.50;15.25;;;;;5.18;56.35;101899.91;4963669;28;45544;-65
2022/04/03 00:29:18;;;;;;;;;15.25;12.00;;;;;5.13;54.87;101903.25;4967483;28;45548;-65
2022/04/03 00:31:43;;;;;;;;;16.00;13.00;;;;;5.10;56.06;101898.06;4967425;28;46677;-65
2022/04/03 00:34:08;;;;;;;;;16.00;14.50;;;;;5.08;55.89;101895.47;4969560;28;45435;-65
2022/04/03 00:36:34;;;;;;;;;17.50;12.00;;;;;5.08;55.98;101894.63;4962512;28;45498;-65
2022/04/03 00:38:59;;;;;;;;;17.25;17.25;;;;;5.03;55.58;101901.41;4964828;28;45368;-65
2022/04/03 00:41:25;;;;;;;;;21.00;13.75;;;;;5.01;56.76;101897.97;4967178;28;46079;-62
2022/04/03 00:43:51;;;;;;;;;16.25;12.50;;;;;4.97;56.08;101891.00;4964672;28;45522;-62
2022/04/03 00:46:19;;;;;;;;;15.00;13.75;;;;;4.91;55.49;101885.78;4962782;28;45560;-62
2022/04/03 00:48:47;;;;;;;;;13.50;8.00;;;;;4.88;56.82;101896.91;4964982;28;45790;-62
2022/04/03 00:51:13;;;;;;;;;4.75;4.75;;;;;4.89;56.47;101893.50;4967427;28;45599;-62
2022/04/03 00:53:38;;;;;;;;;17.50;15.75;;;;;4.86;55.96;101894.31;4967977;28;45414;-62
2022/04/03 00:56:05;;;;;;;;;16.25;15.75;;;;;4.89;56.55;101898.63;4967415;28;45252;-62
2022/04/03 00:58:32;;;;;;;;;15.00;15.00;;;;;4.88;55.86;101896.91;4967571;28;45437;-62
2022/04/03 01:00:57;;;;;;;;;17.25;15.50;;;;;4.86;57.10;101903.75;4965972;28;46438;-62
2022/04/03 01:03:23;;;;;;;;;20.75;17.50;;;;;4.84;56.32;101897.72;4966133;28;45388;-67
2022/04/03 01:05:48;;;;;;;;;5.75;5.25;;;;;4.85;56.85;101891.72;4965513;28;45318;-67
2022/04/03 01:08:14;;;;;;;;;19.00;14.00;;;;;4.86;57.90;101888.31;4966024;28;45449;-68
2022/04/03 01:10:40;;;;;;;;;18.00;16.00;;;;;4.90;57.38;101890.06;4963758;28;46036;-64
2022/04/03 01:13:05;;;;;;;;;13.25;13.00;;;;;4.88;57.98;101886.59;4964674;28;46179;-66
2022/04/03 01:15:32;;;;;;;;;16.50;16.50;;;;;4.93;58.42;101890.09;4956691;28;45378;-67
2022/04/03 01:17:58;;;;;;;;;18.00;16.00;;;;;4.90;58.44;101890.06;4956783;28;45338;-65
2022/04/03 01:20:24;;;;;;;;;21.00;16.50;;;;;4.82;57.80;101873.66;4965463;28;45839;-65
2022/04/03 01:22:49;;;;;;;;;13.00;13.00;;;;;4.89;57.44;101894.34;4961573;28;45731;-64
2022/04/03 01:25:15;;;;;;;;;23.00;17.50;;;;;4.82;57.39;101900.28;4965268;28;45177;-65
2022/04/03 01:27:40;;;;;;;;;18.25;16.25;;;;;4.82;57.77;101901.97;4966648;28;45836;-64
2022/04/03 01:30:07;;;;;;;;;16.25;14.00;;;;;4.81;57.54;101892.53;4961784;28;45546;-65
2022/04/03 01:32:33;;;;;;;;;13.25;13.25;;;;;4.79;57.48;101896.75;4966724;28;45508;-65
2022/04/03 01:34:58;;;;;;;;;19.50;16.00;;;;;4.77;57.76;101894.16;4972562;28;45525;-65
2022/04/03 01:37:24;;;;;;;;;21.50;16.00;;;;;4.77;58.04;101896.75;4970598;28;45863;-63
2022/04/03 01:39:49;;;;;;;;;12.50;11.50;;;;;4.79;59.05;101892.47;4964194;28;46553;-63
2022/04/03 01:42:15;;;;;;;;;21.25;18.50;;;;;4.79;57.83;101894.19;4965230;28;45506;-63
2022/04/03 01:44:40;;;;;;;;;21.00;18.00;;;;;4.77;58.70;101889.00;4968722;28;45412;-64
2022/04/03 01:47:06;;;;;;;;;22.75;15.50;;;;;4.83;58.75;101890.84;4965927;28;45278;-63
2022/04/03 01:49:31;;;;;;;;;19.25;14.75;;;;;4.83;58.82;101888.25;4967368;28;45366;-62
2022/04/03 01:51:57;;;;;;;;;15.00;13.25;;;;;4.83;58.77;101883.97;4966643;28;45369;-64
2022/04/03 01:54:22;;;;;;;;;9.50;9.50;;;;;4.84;58.21;101884.84;4970503;28;45307;-64
2022/04/03 01:56:48;;;;;;;;;13.75;13.75;;;;;4.81;58.88;101882.22;4967015;28;45336;-64
2022/04/03 01:59:13;;;;;;;;;21.25;15.50;;;;;4.78;58.49;101887.31;4968475;28;46180;-63
2022/04/03 02:01:39;;;;;;;;;13.50;12.00;;;;;4.72;58.74;101888.09;4977370;28;45258;-64
2022/04/03 02:04:04;;;;;;;;;19.00;15.75;;;;;4.73;58.78;101891.53;4977479;28;45205;-64
2022/04/03 02:06:31;;;;;;;;;20.25;16.00;;;;;4.74;58.97;101890.69;4977298;28;45498;-64
2022/04/03 02:08:56;;;;;;;;;12.75;12.75;;;;;4.76;59.15;101891.56;4977286;28;46377;-64
2022/04/03 02:11:22;;;;;;;;;18.25;14.50;;;;;4.77;59.06;101894.16;4977121;28;45338;-64
2022/04/03 02:13:47;;;;;;;;;16.00;15.00;;;;;4.77;60.02;101894.16;4977144;28;45300;-63
2022/04/03 02:16:14;;;;;;;;;15.00;12.25;;;;;4.79;59.72;101891.59;4977149;28;45478;-64
2022/04/03 02:18:39;;;;;;;;;16.25;15.25;;;;;4.83;59.32;101883.13;4975701;28;45399;-64
2022/04/03 02:21:05;;;;;;;;;16.00;12.25;;;;;4.83;58.63;101885.69;4963982;28;45335;-64
2022/04/03 02:23:30;;;;;;;;;16.25;12.75;;;;;4.83;58.63;101885.69;4977234;28;45383;-63
2022/04/03 02:25:56;;;;;;;;;20.00;18.50;;;;;4.84;60.27;101890.84;4976995;28;45282;-63
2022/04/03 02:28:21;;;;;;;;;16.00;12.00;;;;;4.80;59.25;101883.91;4975128;28;46639;-63
2022/04/03 02:30:47;;;;;;;;;12.50;11.75;;;;;4.77;59.55;101886.44;4965663;28;45173;-63
2022/04/03 02:33:12;;;;;;;;;11.00;7.25;;;;;4.81;58.82;101895.09;4975731;28;45393;-64
2022/04/03 02:35:38;;;;;;;;;17.75;11.50;;;;;4.80;59.10;101904.50;4976906;28;45466;-64
2022/04/03 02:38:03;;;;;;;;;11.75;7.75;;;;;4.76;58.68;101899.28;4976600;28;46293;-63
2022/04/03 02:40:28;;;;;;;;;22.25;16.50;;;;;4.73;60.29;101897.53;4976721;28;45358;-64
2022/04/03 02:42:54;;;;;;;;;12.75;11.00;;;;;4.74;59.12;101891.56;4976669;28;45220;-65
2022/04/03 02:45:20;;;;;;;;;11.00;11.00;;;;;4.73;59.31;101883.81;4975488;28;45421;-73
2022/04/03 02:47:50;;;;;;;;;11.75;11.75;;;;;4.72;59.81;101889.81;4976525;28;46384;-74
2022/04/03 02:50:16;;;;;;;;;14.25;9.50;;;;;4.75;60.30;101895.00;4976290;28;45313;-71
2022/04/03 02:52:45;;;;;;;;;13.50;11.75;;;;;4.73;58.47;101899.25;4976513;28;45189;-74
2022/04/03 02:55:11;;;;;;;;;15.00;12.25;;;;;4.68;58.77;101895.75;4976308;28;45456;-67
2022/04/03 02:57:37;;;;;;;;;16.25;12.25;;;;;4.65;59.90;101895.72;4974461;28;45290;-67
2022/04/03 03:00:04;;;;;;;;;12.75;11.25;;;;;4.66;59.80;101892.28;4972775;28;45730;-69
2022/04/03 03:02:30;;;;;;;;;21.50;15.00;;;;;4.66;60.18;101900.88;4967981;28;45346;-68
2022/04/03 03:04:56;;;;;;;;;15.50;14.50;;;;;4.65;59.29;101898.28;4979753;28;45378;-68
2022/04/03 03:07:21;;;;;;;;;13.00;12.00;;;;;4.62;59.88;101899.09;4979265;28;46074;-66
2022/04/03 03:09:48;;;;;;;;;16.75;14.75;;;;;4.61;60.17;101896.50;4979544;28;45434;-67
2022/04/03 03:12:14;;;;;;;;;15.50;10.50;;;;;4.60;60.87;101898.19;4979243;28;45238;-66
2022/04/03 03:14:40;;;;;;;;;19.50;14.50;;;;;4.62;60.96;101903.38;4979573;28;45362;-66
2022/04/03 03:17:05;;;;;;;;;16.25;11.25;;;;;4.58;60.30;101898.16;4977181;28;45996;-66
2022/04/03 03:19:31;;;;;;;;;12.25;11.00;;;;;4.58;59.75;101907.59;4987400;28;45428;-66
2022/04/03 03:21:56;;;;;;;;;15.75;12.50;;;;;4.59;61.06;101912.78;4981305;28;45425;-66
2022/04/03 03:24:21;;;;;;;;;12.50;10.00;;;;;4.55;60.53;101900.69;4975965;28;45446;-69
2022/04/03 03:26:47;;;;;;;;;15.75;13.75;;;;;4.55;60.29;101905.84;4976640;28;45351;-69
2022/04/03 03:29:12;;;;;;;;;8.25;6.75;;;;;4.60;60.22;101916.22;4976925;28;45596;-68
2022/04/03 03:31:37;;;;;;;;;15.00;11.50;;;;;4.59;60.34;101917.91;4976722;28;45564;-67
2022/04/03 03:34:03;;;;;;;;;11.25;8.25;;;;;4.58;60.65;101918.75;4977090;28;45318;-67
2022/04/03 03:36:28;;;;;;;;;19.00;15.75;;;;;4.53;60.35;101909.25;4978399;28;45422;-65
2022/04/03 03:38:54;;;;;;;;;12.25;12.25;;;;;4.53;60.67;101907.53;4978985;28;45369;-65
2022/04/03 03:41:19;;;;;;;;;16.50;11.00;;;;;4.52;60.79;101915.22;4978808;28;45389;-65
2022/04/03 03:43:45;;;;;;;;;13.00;11.25;;;;;4.50;61.41;101915.22;4979329;28;45295;-65
2022/04/03 03:46:10;;;;;;;;;13.00;12.00;;;;;4.48;60.84;101911.75;4978773;28;47443;-65
2022/04/03 03:48:36;;;;;;;;;16.00;12.00;;;;;4.46;61.08;101913.44;4979136;28;45509;-65
2022/04/03 03:51:03;;;;;;;;;12.75;6.25;;;;;4.49;61.58;101921.19;4978994;28;45185;-65
2022/04/03 03:53:29;;;;;;;;;9.25;8.75;;;;;4.42;60.41;101923.66;4978970;28;45327;-65
2022/04/03 03:55:54;;;;;;;;;18.75;15.50;;;;;4.41;61.17;101922.78;4978321;28;46219;-65
2022/04/03 03:58:20;;;;;;;;;13.75;11.25;;;;;4.39;60.82;101926.16;4979220;28;45265;-65
2022/04/03 04:00:45;;;;;;;;;12.50;11.50;;;;;4.40;61.53;101920.16;4978756;28;45388;-65
2022/04/03 04:03:11;;;;;;;;;12.00;10.00;;;;;4.36;61.88;101919.25;4978942;28;45449;-65
2022/04/03 04:05:36;;;;;;;;;17.00;12.00;;;;;4.38;61.25;101927.88;4978602;28;46876;-65
2022/04/03 04:08:02;;;;;;;;;20.75;14.25;;;;;4.36;61.56;101926.97;4979025;28;45346;-65
2022/04/03 04:10:28;;;;;;;;;18.75;9.75;;;;;4.31;61.45;101933.75;4978703;28;45366;-65
2022/04/03 04:12:53;;;;;;;;;13.50;11.00;;;;;4.28;60.15;101928.56;4978587;28;45387;-65
2022/04/03 04:15:18;;;;;;;;;12.50;12.50;;;;;4.19;61.63;101929.25;4978335;28;45499;-64
2022/04/03 04:17:45;;;;;;;;;10.00;9.25;;;;;4.12;61.62;101931.69;4978902;28;45270;-64
2022/04/03 04:20:15;;;;;;;;;13.75;11.75;;;;;4.03;60.82;101937.56;4978620;28;45255;-65
2022/04/03 04:22:41;;;;;;;;;13.25;10.25;;;;;3.93;61.57;101946.78;4978449;28;45446;-65
2022/04/03 04:25:08;;;;;;;;;10.00;6.75;;;;;3.88;62.05;101942.41;4977706;28;45276;-63
2022/04/03 04:27:33;;;;;;;;;6.00;4.75;;;;;3.84;62.35;101945.75;4978709;28;45664;-67
2022/04/03 04:29:59;;;;;;;;;7.75;2.00;;;;;3.76;62.91;101937.88;4965626;28;45342;-67
2022/04/03 04:32:24;;;;;;;;;10.00;10.00;;;;;3.73;62.99;101948.09;4978298;28;45489;-67
2022/04/03 04:34:50;;;;;;;;;14.50;12.00;;;;;3.68;63.30;101949.72;4978336;28;46986;-66
2022/04/03 04:37:19;;;;;;;;;16.75;14.00;;;;;3.65;63.75;101949.66;4967352;28;45781;-70
2022/04/03 04:39:45;;;;;;;;;12.25;11.00;;;;;3.62;62.59;101949.63;4978677;28;45317;-69
2022/04/03 04:42:12;;;;;;;;;13.25;8.50;;;;;3.60;63.66;101952.16;4978253;28;45316;-68
2022/04/03 04:44:38;;;;;;;;;14.50;12.00;;;;;3.58;63.46;101948.66;4978317;28;45410;-66
2022/04/03 04:47:04;;;;;;;;;23.25;14.00;;;;;3.54;63.46;101956.28;4978231;28;45359;-66
2022/04/03 04:49:29;;;;;;;;;11.00;11.00;;;;;3.46;63.36;101948.41;4977889;28;45319;-65
2022/04/03 04:51:54;;;;;;;;;11.50;8.75;;;;;3.46;63.40;101955.25;4977934;28;45482;-66
2022/04/03 04:54:20;;;;;;;;;17.25;13.75;;;;;3.40;63.83;101961.13;4977391;28;45410;-65
2022/04/03 04:56:47;;;;;;;;;10.00;10.00;;;;;3.34;63.32;101954.16;4977756;28;45318;-65
2022/04/03 04:59:12;;;;;;;;;17.50;17.50;;;;;3.28;63.40;101953.16;4978036;28;45311;-65
2022/04/03 05:01:38;;;;;;;;;10.75;8.00;;;;;3.22;63.43;101961.63;4977881;28;45430;-65
2022/04/03 05:04:04;;;;;;;;;11.50;10.00;;;;;3.14;63.63;101965.69;4978070;28;47195;-65
2022/04/03 05:06:32;;;;;;;;;11.75;11.75;;;;;3.07;64.29;101968.97;4978186;28;45736;-64
2022/04/03 05:08:58;;;;;;;;;10.75;10.00;;;;;2.98;64.08;101979.88;4978166;28;45761;-64
2022/04/03 05:11:24;;;;;;;;;11.75;11.75;;;;;2.94;64.21;101964.38;4978025;28;45481;-66
2022/04/03 05:13:50;;;;;;;;;15.50;9.50;;;;;2.86;63.96;101966.78;4977757;28;45360;-66
2022/04/03 05:16:15;;;;;;;;;12.50;11.00;;;;;2.84;64.12;101978.72;4978028;28;45348;-66
2022/04/03 05:18:41;;;;;;;;;11.00;11.00;;;;;2.74;64.15;101971.59;4979653;28;45318;-68
2022/04/03 05:21:08;;;;;;;;;15.00;7.00;;;;;2.69;64.50;101976.63;4990159;28;45258;-67
2022/04/03 05:23:33;;;;;;;;;10.00;7.75;;;;;2.64;64.40;101970.53;4978207;28;48113;-67
2022/04/03 05:25:59;;;;;;;;;17.50;11.50;;;;;2.61;64.99;101983.28;4976608;28;45353;-67
2022/04/03 05:28:26;;;;;;;;;12.50;8.00;;;;;2.60;64.28;101980.66;4978108;28;45569;-67
2022/04/03 05:30:52;;;;;;;;;11.00;10.00;;;;;2.57;64.91;101986.56;4977677;28;45369;-67
2022/04/03 05:33:18;;;;;;;;;13.75;10.50;;;;;2.50;64.59;101978.69;4977789;28;45279;-68
2022/04/03 05:35:43;;;;;;;;;12.25;10.25;;;;;2.47;64.67;101984.63;4976514;27;45339;-68
2022/04/03 05:38:09;;;;;;;;;16.00;11.25;;;;;2.45;64.56;101991.41;4978045;28;45318;-68
2022/04/03 05:40:34;;;;;;;;;10.25;10.25;;;;;2.44;65.36;101981.97;4977635;28;45354;-67
2022/04/03 05:43:00;;;;;;;;;15.50;12.50;;;;;2.47;65.01;101979.50;4977529;28;45379;-68
2022/04/03 05:45:26;;;;;;;;;12.75;12.75;;;;;2.44;64.25;101992.25;4977565;28;45451;-68
2022/04/03 05:47:52;;;;;;;;;9.25;9.25;;;;;2.45;65.26;101991.41;4977627;28;45218;-67
2022/04/03 05:50:19;;;;;;;;;10.00;7.75;;;;;2.46;64.99;101993.16;4977828;28;45254;-68
2022/04/03 05:52:49;;;;;;;;;11.75;11.75;;;;;2.46;64.97;101995.72;4977376;28;45466;-68
2022/04/03 05:55:16;;;;;;;;;16.00;13.75;;;;;2.52;64.89;101984.72;4977272;28;45447;-67
2022/04/03 05:57:42;;;;;;;;;13.25;11.00;;;;;2.53;64.88;101983.91;4976302;28;45326;-67
2022/04/03 06:00:12;;;;;;;;;12.00;10.25;;;;;2.59;64.42;101995.19;4977348;28;45226;-68
2022/04/03 06:02:41;;;;;;;;;15.25;12.00;;;;;2.60;64.74;101996.94;4977243;28;45358;-68
2022/04/03 06:05:07;;;;;;;;;15.00;12.75;;;;;2.64;64.88;102003.88;4977415;28;45416;-68
2022/04/03 06:07:32;;;;;;;;;7.75;3.50;;;;;2.70;64.43;102016.00;4975762;28;45223;-68
2022/04/03 06:09:58;;;;;;;;;17.33;13.67;;;;;2.72;64.21;102015.19;4967888;28;45219;-68
2022/04/03 06:12:24;;;;;;;;;12.50;10.50;;;;;2.68;63.27;102009.97;4965784;28;46326;-68
2022/04/03 06:14:49;;;;;;;;;16.67;10.33;;;;;2.66;64.11;102006.50;4967009;28;45212;-67
2022/04/03 06:17:14;;;;;;;;;13.25;10.50;;;;;2.69;64.76;102015.13;4967083;28;45683;-67
2022/04/03 06:19:40;;;;;;;;;16.75;14.00;;;;;2.74;65.34;102025.50;4967549;28;45164;-67
2022/04/03 06:22:05;;;;;;;;;14.33;13.00;;;;;2.75;64.51;102017.84;4969125;28;46050;-68
2022/04/03 06:24:31;;;;;;;;;13.00;8.50;;;;;2.78;63.65;102018.75;4966280;28;45438;-68
2022/04/03 06:26:56;;;;;;;;;12.50;11.00;;;;;2.73;63.71;102024.63;4967035;28;45294;-66
2022/04/03 06:29:21;;;;;;;;;13.33;13.00;;;;;2.73;63.36;102019.50;4967175;28;45321;-65
2022/04/03 06:31:47;;;;;;;;;12.25;11.75;;;;;2.78;63.41;102031.56;4967617;28;45376;-65
2022/04/03 06:34:12;;;;;;;;;11.50;11.00;;;;;2.74;62.03;102036.63;4967047;28;45344;-66
2022/04/03 06:36:38;;;;;;;;;20.50;13.00;;;;;2.80;63.22;102041.03;4968797;28;46536;-67
2022/04/03 06:39:04;;;;;;;;;11.50;11.50;;;;;2.84;61.87;102042.88;4969879;28;45575;-67
2022/04/03 06:41:29;;;;;;;;;13.50;10.00;;;;;2.86;61.76;102038.66;4999483;28;46199;-66
2022/04/03 06:43:55;;;;;;;;;19.25;14.25;;;;;2.93;63.02;102042.22;4972285;28;45484;-65
2022/04/03 06:46:20;;;;;;;;;7.25;7.25;;;;;2.98;62.14;102045.78;4979683;28;45313;-64
2022/04/03 06:48:45;;;;;;;;;13.25;10.75;;;;;3.05;62.57;102050.25;4979992;28;45295;-64
2022/04/03 06:51:11;;;;;;;;;14.50;13.00;;;;;3.12;61.65;102041.84;4979581;28;46648;-64
2022/04/03 06:53:36;;;;;;;;;17.25;13.25;;;;;3.18;62.44;102039.41;4979774;28;45272;-64
2022/04/03 06:56:02;;;;;;;;;11.00;7.50;;;;;3.29;62.72;102043.13;4966612;28;45211;-65
2022/04/03 06:58:27;;;;;;;;;12.00;10.75;;;;;3.39;61.86;102045.88;4979968;28;45253;-68
2022/04/03 07:00:52;;;;;;;;;13.00;8.00;;;;;3.41;59.09;102054.53;4979206;28;45422;-67
2022/04/03 07:03:18;;;;;;;;;8.50;8.00;;;;;3.39;58.62;102049.31;4979621;28;45146;-66
2022/04/03 07:05:43;;;;;;;;;17.50;14.00;;;;;3.49;61.06;102059.00;4975894;28;45347;-66
2022/04/03 07:08:08;;;;;;;;;10.75;10.50;;;;;3.56;60.27;102058.28;4978129;28;45227;-67
2022/04/03 07:10:34;;;;;;;;;14.33;11.00;;;;;3.62;61.82;102057.56;4979086;28;46404;-69
2022/04/03 07:12:59;;;;;;;;;10.75;7.75;;;;;3.72;61.43;102064.63;4979541;28;45236;-69
2022/04/03 07:15:25;;;;;;;;;10.00;10.00;;;;;3.83;58.79;102058.03;4979110;28;45565;-69
2022/04/03 07:17:51;;;;;;;;;14.00;11.00;;;;;3.90;58.73;102071.88;4979412;28;45483;-70
2022/04/03 07:20:16;;;;;;;;;5.50;5.50;;;;;3.89;57.03;102060.72;4970669;28;45367;-70
2022/04/03 07:22:42;;;;;;;;;10.25;9.75;;;;;3.94;58.25;102059.09;4971750;28;45523;-66
2022/04/03 07:25:12;;;;;;;;;13.75;10.00;;;;;4.05;60.09;102061.91;4969167;28;45349;-68
2022/04/03 07:27:38;;;;;;;;;12.50;10.00;;;;;4.18;60.45;102066.44;4969174;28;45555;-64
2022/04/03 07:30:05;;;;;;;;;13.50;12.75;;;;;4.28;57.50;102077.81;4974245;28;45381;-64
2022/04/03 07:32:31;;;;;;;;;12.50;12.00;;;;;4.33;57.49;102081.34;4967684;28;45190;-63
2022/04/03 07:34:57;;;;;;;;;12.00;7.50;;;;;4.39;59.75;102078.88;4967740;28;45441;-64
2022/04/03 07:37:22;;;;;;;;;5.00;4.00;;;;;4.46;55.40;102073.03;4968376;28;45393;-64
2022/04/03 07:39:47;;;;;;;;;10.50;10.00;;;;;4.61;58.58;102079.31;4975474;28;46978;-63
2022/04/03 07:42:13;;;;;;;;;11.00;8.25;;;;;4.68;56.90;102069.13;4969346;28;45528;-70
2022/04/03 07:44:38;;;;;;;;;10.75;10.75;;;;;4.77;56.99;102076.13;4967637;28;45454;-69
2022/04/03 07:47:04;;;;;;;;;10.75;9.25;;;;;4.90;57.28;102080.69;4968108;28;45384;-69
2022/04/03 07:49:30;;;;;;;;;16.25;11.25;;;;;5.03;56.75;102082.63;4969447;28;45343;-66
2022/04/03 07:51:55;;;;;;;;;11.25;7.25;;;;;5.12;53.93;102085.34;4968161;28;45352;-68
2022/04/03 07:54:21;;;;;;;;;9.50;9.50;;;;;5.17;56.78;102086.28;4978718;28;45467;-68
2022/04/03 07:56:46;;;;;;;;;13.00;8.25;;;;;5.28;55.67;102089.03;4975706;28;45235;-66
2022/04/03 07:59:11;;;;;;;;;7.75;7.75;;;;;5.37;54.31;102080.56;4968744;28;46305;-66
2022/04/03 08:01:37;;;;;;;;;9.33;8.67;;;;;5.44;55.54;102082.41;4969061;28;45272;-64
2022/04/03 08:04:02;;;;;;;;;8.25;8.25;;;;;5.49;56.78;102085.94;4969634;28;45213;-67
2022/04/03 08:06:27;;;;;;;;;12.25;10.50;;;;;5.53;56.30;102090.28;4968578;28;45442;-66
2022/04/03 08:08:53;;;;;;;;;13.00;8.75;;;;;5.57;54.99;102098.91;4967945;28;46129;-66
2022/04/03 08:11:18;;;;;;;;;9.50;5.75;;;;;5.66;54.12;102094.78;4968329;28;45497;-66
2022/04/03 08:13:45;;;;;;;;;10.00;7.50;;;;;5.77;56.03;102097.50;4969716;28;45252;-66
2022/04/03 08:16:10;;;;;;;;;13.25;8.75;;;;;5.83;50.82;102099.31;4968039;28;45275;-66
2022/04/03 08:18:36;;;;;;;;;12.00;8.00;;;;;5.83;53.34;102092.44;4969718;28;46316;-68
2022/04/03 08:21:01;;;;;;;;;11.75;9.75;;;;;5.95;53.52;102109.81;4973895;28;45479;-66
2022/04/03 08:23:27;;;;;;;;;8.00;5.75;;;;;6.04;52.74;102107.38;4967468;28;45358;-66
2022/04/03 08:25:53;;;;;;;;;5.75;5.75;;;;;6.02;48.36;102101.31;4968073;28;45621;-66
2022/04/03 08:28:18;;;;;;;;;4.50;4.00;;;;;6.06;53.10;102095.34;4994458;28;47317;-67
2022/04/03 08:30:43;;;;;;;;;15.25;10.75;;;;;6.09;54.02;102096.25;4969542;28;45373;-67
2022/04/03 08:33:09;;;;;;;;;8.00;6.00;;;;;6.21;53.46;102105.88;4968066;28;45345;-67
2022/04/03 08:35:40;;;;;;;;;4.75;4.75;;;;;6.36;53.47;102097.44;4967816;28;45312;-66
2022/04/03 08:38:05;;;;;;;;;11.50;8.00;;;;;6.35;52.21;102106.88;4969204;28;46138;-65
2022/04/03 08:40:31;;;;;;;;;5.00;5.00;;;;;6.29;51.96;102106.81;4967667;28;45685;-68
2022/04/03 08:42:57;;;;;;;;;5.75;5.25;;;;;6.29;51.25;102108.53;4967040;28;45358;-68
2022/04/03 08:45:23;;;;;;;;;8.50;6.50;;;;;6.31;50.19;102110.28;4967386;28;45465;-62
2022/04/03 08:47:54;;;;;;;;;5.00;5.00;;;;;6.31;51.60;102107.72;4969024;28;45455;-64
2022/04/03 08:50:25;;;;;;;;;5.75;5.75;;;;;6.38;48.81;102113.78;4968352;28;45568;-63
2022/04/03 08:52:52;;;;;;;;;9.00;7.50;;;;;6.49;49.17;102103.59;4968901;28;45214;-65
2022/04/03 08:55:20;;;;;;;;;6.00;6.00;;;;;6.64;51.29;102109.81;4968071;28;45485;-62
2022/04/03 08:57:46;;;;;;;;;8.50;8.00;;;;;6.67;50.98;102108.97;4970473;28;46509;-65
2022/04/03 09:00:15;;;;;;;;;6.00;6.00;;;;;6.69;50.92;102115.03;4966521;28;45411;-62
2022/04/03 09:02:43;;;;;;;;;2.00;2.00;;;;;6.74;49.18;102109.91;4967391;28;45482;-64
2022/04/03 09:05:11;;;;;;;;;2.00;2.00;;;;;6.81;50.46;102091.91;4967837;28;46324;-62
2022/04/03 09:07:37;;;;;;;;;5.75;5.00;;;;;6.82;42.94;102110.84;4968564;28;46673;-62
2022/04/03 09:10:12;;;;;;;;;3.50;3.50;;;;;6.86;48.25;102113.47;4967906;28;45481;-64
2022/04/03 09:12:49;;;;;;;;;8.75;5.75;;;;;6.93;48.12;102094.59;4965463;28;45310;-62
2022/04/03 09:15:17;;;;;;;;;6.00;4.75;;;;;6.89;45.52;102099.72;4967093;28;45280;-62
2022/04/03 09:17:45;;;;;;;;;5.75;5.75;;;;;6.97;46.99;102108.41;4968818;28;46147;-61
2022/04/03 09:20:16;;;;;;;;;4.00;2.00;;;;;6.91;39.90;102109.22;4972891;28;45306;-62
2022/04/03 09:22:44;;;;;;;;;4.75;2.25;;;;;6.97;44.42;102101.50;4967356;28;45324;-62
2022/04/03 09:25:12;;;;;;;;;5.75;3.50;;;;;6.98;39.03;102099.78;4967933;28;45446;-64
2022/04/03 09:27:56;;;;;;;;;6.50;4.50;;;;;7.09;43.45;102107.66;4968425;28;47494;-62
2022/04/03 09:30:32;;;;;;;;;4.50;4.50;;;;;7.14;44.40;102113.72;4994035;28;45528;-63
2022/04/03 09:32:59;;;;;;;;;3.00;2.00;;;;;7.12;39.80;102107.69;4982826;28;45414;-62
2022/04/03 09:35:52;;;;;;;;;2.00;2.00;;;;;7.22;39.21;102115.53;4967678;28;45395;-63
2022/04/03 09:38:17;;;;;;;;;4.00;3.00;;;;;7.32;39.60;102106.13;4968077;28;45529;-62
2022/04/03 09:40:44;;;;;;;;;3.00;3.00;;;;;7.40;42.48;102109.63;4967461;28;45406;-62
2022/04/03 09:43:27;;;;;;;;;3.00;3.00;;;;;7.43;43.68;102095.88;4965111;28;45260;-60
2022/04/03 09:45:58;;;;;;;;;4.00;1.00;;;;;7.47;41.76;102108.84;4967139;28;45993;-61
2022/04/03 09:48:29;;;;;;;;;2.00;2.00;;;;;7.42;42.14;102102.75;4967518;28;46135;-62
2022/04/03 09:51:09;;;;;;;;;5.25;2.00;;;;;7.48;43.48;102102.81;4967375;28;45467;-63
2022/04/03 09:53:47;;;;;;;;;2.00;2.00;;;;;7.54;42.15;102094.22;4966811;28;45298;-62
2022/04/03 09:56:25;;;;;;;;;2.00;2.00;;;;;7.62;41.32;102098.59;4964643;28;45503;-61
2022/04/03 09:58:50;;;;;;;;;0.00;0.00;;;;;7.71;42.92;102113.28;4965599;28;45464;-65
2022/04/03 10:01:27;;;;;;;;;2.00;1.00;;;;;7.74;42.07;102102.97;4967123;28;45407;-63
2022/04/03 10:03:53;;;;;;;;;3.50;1.50;;;;;7.79;41.27;102101.25;4965071;28;45517;-60
2022/04/03 10:06:19;;;;;;;;;1.25;1.25;;;;;7.83;38.27;102115.97;4966012;28;45336;-61
2022/04/03 10:08:47;;;;;;;;;5.00;2.00;;;;;7.86;41.29;102102.19;4966557;28;46994;-60
2022/04/03 10:11:14;;;;;;;;;1.25;0.50;;;;;7.87;42.06;102097.00;4962242;28;45482;-60
2022/04/03 10:13:40;;;;;;;;;0.75;0.75;;;;;7.92;40.98;102102.19;4972592;28;45786;-61
2022/04/03 10:16:05;;;;;;;;;1.25;1.00;;;;;7.92;40.99;102100.47;4972153;28;45451;-60
2022/04/03 10:18:33;;;;;;;;;3.00;3.00;;;;;7.91;40.95;102095.28;4964552;28;45367;-67
2022/04/03 10:20:58;;;;;;;;;0.50;0.50;;;;;7.92;40.12;102099.63;4965504;28;45306;-58
2022/04/03 10:23:27;;;;;;;;;2.00;2.00;;;;;7.83;40.32;102089.22;4967092;28;45211;-63
2022/04/03 10:25:56;;;;;;;;;3.75;2.00;;;;;7.99;41.17;102092.72;4967088;28;46583;-59
2022/04/03 10:28:22;;;;;;;;;2.75;2.50;;;;;8.13;38.53;102086.78;4969277;28;45434;-59
2022/04/03 10:30:58;;;;;;;;;3.00;3.00;;;;;8.23;41.74;102088.56;4967956;28;45303;-60
2022/04/03 10:33:24;;;;;;;;;5.00;2.50;;;;;8.27;41.04;102085.97;4962662;28;45291;-59
2022/04/03 10:36:07;;;;;;;;;1.25;1.25;;;;;8.34;36.82;102093.78;4965633;28;45283;-59
2022/04/03 10:38:35;;;;;;;;;3.00;3.00;;;;;8.28;39.68;102092.88;4965865;28;46195;-61
2022/04/03 10:41:01;;;;;;;;;5.50;5.50;;;;;8.27;40.38;102093.75;4966724;28;45882;-61
2022/04/03 10:43:29;;;;;;;;;4.00;2.00;;;;;8.38;40.10;102082.56;4964269;28;45604;-60
2022/04/03 10:45:55;;;;;;;;;3.00;3.00;;;;;8.59;40.48;102081.75;4963820;28;45490;-59
2022/04/03 10:48:20;;;;;;;;;3.00;1.50;;;;;8.79;39.07;102077.47;4966166;28;45348;-60
2022/04/03 10:50:57;;;;;;;;;5.00;2.75;;;;;8.90;41.36;102094.78;4964797;28;45280;-59
2022/04/03 10:53:25;;;;;;;;;4.50;4.50;;;;;8.86;39.41;102085.28;4965439;28;45282;-61
2022/04/03 10:55:55;;;;;;;;;3.00;1.00;;;;;8.94;40.39;102079.22;4964459;28;45823;-59
2022/04/03 10:58:22;;;;;;;;;2.25;2.25;;;;;9.05;40.30;102076.66;4962887;28;45978;-60
2022/04/03 11:00:49;;;;;;;;;5.50;4.50;;;;;9.06;40.85;102076.66;4965073;28;45298;-61
2022/04/03 11:03:14;;;;;;;;;3.00;3.00;;;;;9.16;38.48;102072.31;4968220;28;45512;-65
2022/04/03 11:05:45;;;;;;;;;3.00;3.00;;;;;9.39;38.68;102059.31;4964666;28;45399;-62
2022/04/03 11:08:11;;;;;;;;;3.00;3.00;;;;;9.55;38.69;102058.44;4963394;28;45659;-60
2022/04/03 11:10:48;;;;;;;;;8.00;3.00;;;;;9.59;39.05;102065.34;4971090;28;45388;-60
2022/04/03 11:13:15;;;;;;;;;2.00;2.00;;;;;9.65;38.53;102060.16;4965265;28;45483;-60
2022/04/03 11:15:51;;;;;;;;;3.50;3.50;;;;;9.75;39.04;102058.38;4965607;28;45425;-60
2022/04/03 11:18:47;;;;;;;;;1.00;1.00;;;;;9.75;37.49;102053.19;4964424;28;46346;-61
2022/04/03 11:21:22;;;;;;;;;2.00;2.00;;;;;9.75;40.16;102043.66;4966235;28;45953;-62